sensor_id;sensor_type;location;lat;lon;timestamp;P1;durP1;ratioP1;P2;durP2;ratioP2
3401;SDS011;1714;49.756;8.610;2023-05-23T00:03:52;38.95;;;24.40;;
3401;SDS011;1714;49.756;8.610;2023-05-23T00:14:29;36.08;;;23.17;;
3401;SDS011;1714;49.756;8.610;2023-05-23T00:25:09;33.92;;;23.35;;
3401;SDS011;1714;49.756;8.610;2023-05-23T00:35:44;34.33;;;23.80;;
3401;SDS011;1714;49.756;8.610;2023-05-23T00:46:19;35.40;;;24.80;;
3401;SDS011;1714;49.756;8.610;2023-05-23T00:56:55;42.03;;;26.55;;
3401;SDS011;1714;49.756;8.610;2023-05-23T01:07:30;42.50;;;30.23;;
3401;SDS011;1714;49.756;8.610;2023-05-23T01:18:06;40.40;;;27.27;;
3401;SDS011;1714;49.756;8.610;2023-05-23T01:28:57;40.55;;;27.13;;
3401;SDS011;1714;49.756;8.610;2023-05-23T01:39:43;38.78;;;26.63;;
3401;SDS011;1714;49.756;8.610;2023-05-23T01:50:18;43.63;;;27.70;;
3401;SDS011;1714;49.756;8.610;2023-05-23T02:00:53;43.60;;;28.85;;
3401;SDS011;1714;49.756;8.610;2023-05-23T02:11:28;49.85;;;28.10;;
3401;SDS011;1714;49.756;8.610;2023-05-23T02:22:03;42.97;;;29.45;;
3401;SDS011;1714;49.756;8.610;2023-05-23T02:32:39;42.80;;;28.80;;
3401;SDS011;1714;49.756;8.610;2023-05-23T02:43:14;43.45;;;29.25;;
3401;SDS011;1714;49.756;8.610;2023-05-23T02:53:49;39.50;;;30.02;;
3401;SDS011;1714;49.756;8.610;2023-05-23T03:04:24;36.47;;;27.52;;
3401;SDS011;1714;49.756;8.610;2023-05-23T03:15:00;36.85;;;27.38;;
3401;SDS011;1714;49.756;8.610;2023-05-23T03:25:35;37.10;;;26.50;;
3401;SDS011;1714;49.756;8.610;2023-05-23T03:36:11;29.05;;;22.85;;
3401;SDS011;1714;49.756;8.610;2023-05-23T03:46:46;21.00;;;17.45;;
3401;SDS011;1714;49.756;8.610;2023-05-23T03:57:22;19.15;;;16.40;;
3401;SDS011;1714;49.756;8.610;2023-05-23T04:07:58;23.40;;;17.42;;
3401;SDS011;1714;49.756;8.610;2023-05-23T04:18:35;20.65;;;15.85;;
3401;SDS011;1714;49.756;8.610;2023-05-23T04:29:14;19.83;;;15.88;;
3401;SDS011;1714;49.756;8.610;2023-05-23T04:39:49;20.92;;;15.55;;
3401;SDS011;1714;49.756;8.610;2023-05-23T04:50:42;19.17;;;15.73;;
3401;SDS011;1714;49.756;8.610;2023-05-23T05:01:21;22.97;;;17.17;;
3401;SDS011;1714;49.756;8.610;2023-05-23T05:12:00;22.33;;;17.57;;
3401;SDS011;1714;49.756;8.610;2023-05-23T05:22:38;23.85;;;18.98;;
3401;SDS011;1714;49.756;8.610;2023-05-23T05:33:15;22.48;;;17.88;;
3401;SDS011;1714;49.756;8.610;2023-05-23T05:43:52;23.63;;;17.75;;
3401;SDS011;1714;49.756;8.610;2023-05-23T05:54:27;22.65;;;15.15;;
3401;SDS011;1714;49.756;8.610;2023-05-23T06:05:02;15.07;;;13.45;;
3401;SDS011;1714;49.756;8.610;2023-05-23T06:15:39;15.43;;;10.40;;
3401;SDS011;1714;49.756;8.610;2023-05-23T06:26:14;14.85;;;11.57;;
3401;SDS011;1714;49.756;8.610;2023-05-23T06:36:49;13.07;;;11.68;;
3401;SDS011;1714;49.756;8.610;2023-05-23T06:47:26;12.50;;;11.20;;
3401;SDS011;1714;49.756;8.610;2023-05-23T06:58:01;16.40;;;11.73;;
3401;SDS011;1714;49.756;8.610;2023-05-23T07:08:41;13.43;;;8.98;;
3401;SDS011;1714;49.756;8.610;2023-05-23T07:19:16;10.65;;;8.82;;
3401;SDS011;1714;49.756;8.610;2023-05-23T07:29:55;13.63;;;7.17;;
3401;SDS011;1714;49.756;8.610;2023-05-23T07:40:31;8.95;;;5.88;;
3401;SDS011;1714;49.756;8.610;2023-05-23T07:51:06;7.15;;;6.45;;
3401;SDS011;1714;49.756;8.610;2023-05-23T08:01:41;6.88;;;6.13;;
3401;SDS011;1714;49.756;8.610;2023-05-23T08:12:23;6.85;;;6.18;;
3401;SDS011;1714;49.756;8.610;2023-05-23T08:23:06;7.38;;;6.63;;
3401;SDS011;1714;49.756;8.610;2023-05-23T08:33:42;6.97;;;6.22;;
3401;SDS011;1714;49.756;8.610;2023-05-23T08:44:18;6.72;;;5.28;;
3401;SDS011;1714;49.756;8.610;2023-05-23T08:54:59;5.70;;;4.85;;
3401;SDS011;1714;49.756;8.610;2023-05-23T09:05:37;5.37;;;3.83;;
3401;SDS011;1714;49.756;8.610;2023-05-23T09:16:14;5.55;;;4.00;;
3401;SDS011;1714;49.756;8.610;2023-05-23T09:27:01;3.78;;;3.40;;
3401;SDS011;1714;49.756;8.610;2023-05-23T09:37:39;5.28;;;3.42;;
3401;SDS011;1714;49.756;8.610;2023-05-23T09:48:19;5.18;;;3.70;;
3401;SDS011;1714;49.756;8.610;2023-05-23T09:59:01;4.30;;;2.80;;
3401;SDS011;1714;49.756;8.610;2023-05-23T10:09:37;3.28;;;2.97;;
3401;SDS011;1714;49.756;8.610;2023-05-23T10:20:15;4.00;;;2.55;;
3401;SDS011;1714;49.756;8.610;2023-05-23T10:30:50;4.90;;;3.30;;
3401;SDS011;1714;49.756;8.610;2023-05-23T10:41:40;2.92;;;2.35;;
3401;SDS011;1714;49.756;8.610;2023-05-23T10:52:22;3.35;;;2.90;;
3401;SDS011;1714;49.756;8.610;2023-05-23T11:03:03;3.20;;;2.90;;
3401;SDS011;1714;49.756;8.610;2023-05-23T11:24:47;3.33;;;3.03;;
3401;SDS011;1714;49.756;8.610;2023-05-23T11:35:26;4.20;;;3.80;;
3401;SDS011;1714;49.756;8.610;2023-05-23T11:46:07;6.07;;;4.63;;
3401;SDS011;1714;49.756;8.610;2023-05-23T11:56:43;6.32;;;5.68;;
3401;SDS011;1714;49.756;8.610;2023-05-23T12:07:19;5.45;;;4.75;;
3401;SDS011;1714;49.756;8.610;2023-05-23T12:17:54;9.02;;;4.55;;
3401;SDS011;1714;49.756;8.610;2023-05-23T12:28:37;6.43;;;3.97;;
3401;SDS011;1714;49.756;8.610;2023-05-23T12:39:12;4.60;;;3.95;;
3401;SDS011;1714;49.756;8.610;2023-05-23T12:49:47;4.95;;;3.85;;
3401;SDS011;1714;49.756;8.610;2023-05-23T13:00:22;5.03;;;4.53;;
3401;SDS011;1714;49.756;8.610;2023-05-23T13:10:57;8.95;;;4.10;;
3401;SDS011;1714;49.756;8.610;2023-05-23T13:21:33;4.97;;;3.70;;
3401;SDS011;1714;49.756;8.610;2023-05-23T13:32:08;6.88;;;2.85;;
3401;SDS011;1714;49.756;8.610;2023-05-23T13:42:43;3.53;;;2.65;;
3401;SDS011;1714;49.756;8.610;2023-05-23T13:53:18;2.40;;;2.20;;
3401;SDS011;1714;49.756;8.610;2023-05-23T14:03:54;1.35;;;1.25;;
3401;SDS011;1714;49.756;8.610;2023-05-23T14:14:29;2.78;;;1.88;;
3401;SDS011;1714;49.756;8.610;2023-05-23T14:25:05;5.00;;;3.25;;
3401;SDS011;1714;49.756;8.610;2023-05-23T14:35:40;4.88;;;3.58;;
3401;SDS011;1714;49.756;8.610;2023-05-23T14:46:16;3.80;;;3.28;;
3401;SDS011;1714;49.756;8.610;2023-05-23T14:56:52;4.97;;;3.53;;
3401;SDS011;1714;49.756;8.610;2023-05-23T15:07:27;7.63;;;4.10;;
3401;SDS011;1714;49.756;8.610;2023-05-23T15:18:02;7.55;;;4.82;;
3401;SDS011;1714;49.756;8.610;2023-05-23T15:28:40;15.10;;;7.37;;
3401;SDS011;1714;49.756;8.610;2023-05-23T15:39:15;8.30;;;6.05;;
3401;SDS011;1714;49.756;8.610;2023-05-23T15:49:51;10.05;;;5.68;;
3401;SDS011;1714;49.756;8.610;2023-05-23T16:00:26;9.68;;;5.88;;
3401;SDS011;1714;49.756;8.610;2023-05-23T16:11:01;8.40;;;5.28;;
3401;SDS011;1714;49.756;8.610;2023-05-23T16:21:36;7.85;;;5.32;;
3401;SDS011;1714;49.756;8.610;2023-05-23T16:32:13;11.52;;;5.13;;
3401;SDS011;1714;49.756;8.610;2023-05-23T16:42:48;7.38;;;4.65;;
3401;SDS011;1714;49.756;8.610;2023-05-23T16:53:23;6.05;;;4.30;;
3401;SDS011;1714;49.756;8.610;2023-05-23T17:03:59;12.65;;;4.28;;
3401;SDS011;1714;49.756;8.610;2023-05-23T17:14:34;5.28;;;3.58;;
3401;SDS011;1714;49.756;8.610;2023-05-23T17:25:09;5.90;;;3.85;;
3401;SDS011;1714;49.756;8.610;2023-05-23T17:35:44;3.97;;;3.15;;
3401;SDS011;1714;49.756;8.610;2023-05-23T17:46:19;3.95;;;2.65;;
3401;SDS011;1714;49.756;8.610;2023-05-23T17:56:54;7.53;;;3.58;;
3401;SDS011;1714;49.756;8.610;2023-05-23T18:07:30;8.00;;;3.50;;
3401;SDS011;1714;49.756;8.610;2023-05-23T18:18:05;6.63;;;3.35;;
3401;SDS011;1714;49.756;8.610;2023-05-23T18:28:40;6.43;;;2.58;;
3401;SDS011;1714;49.756;8.610;2023-05-23T18:39:16;3.65;;;2.55;;
3401;SDS011;1714;49.756;8.610;2023-05-23T18:49:52;5.32;;;2.72;;
3401;SDS011;1714;49.756;8.610;2023-05-23T19:00:27;4.22;;;2.63;;
3401;SDS011;1714;49.756;8.610;2023-05-23T19:11:02;6.22;;;2.65;;
3401;SDS011;1714;49.756;8.610;2023-05-23T19:21:39;4.90;;;2.67;;
3401;SDS011;1714;49.756;8.610;2023-05-23T19:32:14;5.28;;;2.60;;
3401;SDS011;1714;49.756;8.610;2023-05-23T19:42:50;3.35;;;2.40;;
3401;SDS011;1714;49.756;8.610;2023-05-23T19:53:24;4.82;;;2.22;;
3401;SDS011;1714;49.756;8.610;2023-05-23T20:03:59;5.57;;;2.30;;
3401;SDS011;1714;49.756;8.610;2023-05-23T20:14:34;4.97;;;2.28;;
3401;SDS011;1714;49.756;8.610;2023-05-23T20:25:09;8.70;;;2.80;;
3401;SDS011;1714;49.756;8.610;2023-05-23T20:35:44;9.90;;;2.60;;
3401;SDS011;1714;49.756;8.610;2023-05-23T20:46:21;3.33;;;2.85;;
3401;SDS011;1714;49.756;8.610;2023-05-23T20:56:56;7.22;;;2.90;;
3401;SDS011;1714;49.756;8.610;2023-05-23T21:07:32;5.70;;;2.65;;
3401;SDS011;1714;49.756;8.610;2023-05-23T21:18:07;5.80;;;2.60;;
3401;SDS011;1714;49.756;8.610;2023-05-23T21:28:42;4.65;;;2.00;;
3401;SDS011;1714;49.756;8.610;2023-05-23T21:39:18;9.23;;;2.55;;
3401;SDS011;1714;49.756;8.610;2023-05-23T21:49:53;6.70;;;2.63;;
3401;SDS011;1714;49.756;8.610;2023-05-23T22:00:29;7.88;;;2.67;;
3401;SDS011;1714;49.756;8.610;2023-05-23T22:11:04;8.75;;;3.38;;
3401;SDS011;1714;49.756;8.610;2023-05-23T22:21:42;8.38;;;3.15;;
3401;SDS011;1714;49.756;8.610;2023-05-23T22:32:17;11.05;;;2.85;;
3401;SDS011;1714;49.756;8.610;2023-05-23T22:42:51;15.18;;;3.22;;
3401;SDS011;1714;49.756;8.610;2023-05-23T22:53:27;8.45;;;2.97;;
3401;SDS011;1714;49.756;8.610;2023-05-23T23:04:02;9.35;;;3.25;;
3401;SDS011;1714;49.756;8.610;2023-05-23T23:14:37;7.47;;;2.55;;
3401;SDS011;1714;49.756;8.610;2023-05-23T23:25:12;8.73;;;3.03;;
3401;SDS011;1714;49.756;8.610;2023-05-23T23:35:47;11.02;;;3.33;;
3401;SDS011;1714;49.756;8.610;2023-05-23T23:46:25;10.30;;;3.22;;
3401;SDS011;1714;49.756;8.610;2023-05-23T23:57:00;13.40;;;3.28;;
